sensor_id;sensor_type;location;lat;lon;timestamp;pressure;altitude;pressure_sealevel;temperature;humidity
41366;BME280;27108;44.776;20.476;2022-09-09T00:01:08;99537.47;;;22.72;83.06
41366;BME280;27108;44.776;20.476;2022-09-09T00:03:43;99541.06;;;22.73;82.53
41366;BME280;27108;44.776;20.476;2022-09-09T00:06:20;99542.34;;;22.72;83.08
41366;BME280;27108;44.776;20.476;2022-09-09T00:09:00;99544.41;;;22.71;82.60
41366;BME280;27108;44.776;20.476;2022-09-09T00:11:36;99412.13;;;21.55;83.09
41366;BME280;27108;44.776;20.476;2022-09-09T00:14:15;99541.38;;;22.69;83.18
41366;BME280;27108;44.776;20.476;2022-09-09T00:16:51;99459.72;;;22.14;83.67
41366;BME280;27108;44.776;20.476;2022-09-09T00:19:23;99222.03;;;20.57;82.96
41366;BME280;27108;44.776;20.476;2022-09-09T00:22:03;99199.31;;;20.42;82.02
41366;BME280;27108;44.776;20.476;2022-09-09T00:24:41;99541.72;;;22.65;82.15
41366;BME280;27108;44.776;20.476;2022-09-09T00:27:19;99547.91;;;22.64;82.07
41366;BME280;27108;44.776;20.476;2022-09-09T00:29:52;99542.63;;;22.60;82.54
41366;BME280;27108;44.776;20.476;2022-09-09T00:32:25;99541.09;;;22.59;82.80
41366;BME280;27108;44.776;20.476;2022-09-09T00:35:02;99525.78;;;22.47;83.18
41366;BME280;27108;44.776;20.476;2022-09-09T00:37:34;99234.09;;;20.52;82.86
41366;BME280;27108;44.776;20.476;2022-09-09T00:40:13;99540.16;;;22.57;83.30
41366;BME280;27108;44.776;20.476;2022-09-09T00:42:45;99544.13;;;22.61;82.68
41366;BME280;27108;44.776;20.476;2022-09-09T00:45:26;99554.63;;;22.61;82.74
41366;BME280;27108;44.776;20.476;2022-09-09T00:48:07;99556.28;;;22.56;82.95
41366;BME280;27108;44.776;20.476;2022-09-09T00:50:45;99435.84;;;21.81;83.07
41366;BME280;27108;44.776;20.476;2022-09-09T00:53:38;99545.78;;;22.57;83.21
41366;BME280;27108;44.776;20.476;2022-09-09T00:56:12;99536.78;;;22.58;82.73
41366;BME280;27108;44.776;20.476;2022-09-09T00:58:43;99342.94;;;21.25;81.70
41366;BME280;27108;44.776;20.476;2022-09-09T01:01:24;99543.50;;;22.55;82.18
41366;BME280;27108;44.776;20.476;2022-09-09T01:03:55;99541.78;;;22.52;82.55
41366;BME280;27108;44.776;20.476;2022-09-09T01:06:30;99399.47;;;21.48;82.84
41366;BME280;27108;44.776;20.476;2022-09-09T01:09:22;99034.78;;;19.06;82.80
41366;BME280;27108;44.776;20.476;2022-09-09T01:12:01;99289.72;;;20.67;81.96
41366;BME280;27108;44.776;20.476;2022-09-09T01:14:42;99544.94;;;22.49;82.11
41366;BME280;27108;44.776;20.476;2022-09-09T01:17:17;99438.06;;;21.74;81.50
41366;BME280;27108;44.776;20.476;2022-09-09T01:20:03;99550.56;;;22.49;81.07
41366;BME280;27108;44.776;20.476;2022-09-09T01:22:50;99448.31;;;21.72;80.89
41366;BME280;27108;44.776;20.476;2022-09-09T01:26:04;99506.34;;;22.09;80.79
41366;BME280;27108;44.776;20.476;2022-09-09T01:28:42;99506.69;;;22.06;81.44
41366;BME280;27108;44.776;20.476;2022-09-09T01:31:17;99582.09;;;22.47;81.70
41366;BME280;27108;44.776;20.476;2022-09-09T01:34:11;99586.41;;;22.48;81.56
41366;BME280;27108;44.776;20.476;2022-09-09T01:36:44;99589.00;;;22.46;81.95
41366;BME280;27108;44.776;20.476;2022-09-09T01:39:16;99489.94;;;21.73;81.35
41366;BME280;27108;44.776;20.476;2022-09-09T01:41:51;99585.75;;;22.42;82.15
41366;BME280;27108;44.776;20.476;2022-09-09T01:44:21;99449.94;;;21.54;82.44
41366;BME280;27108;44.776;20.476;2022-09-09T01:46:50;99593.34;;;22.47;82.39
41366;BME280;27108;44.776;20.476;2022-09-09T01:49:24;99554.19;;;22.23;81.93
41366;BME280;27108;44.776;20.476;2022-09-09T01:51:55;99593.53;;;22.49;81.17
41366;BME280;27108;44.776;20.476;2022-09-09T01:54:31;99606.88;;;22.49;81.43
41366;BME280;27108;44.776;20.476;2022-09-09T01:57:11;99609.50;;;22.47;80.75
41366;BME280;27108;44.776;20.476;2022-09-09T01:59:54;99609.78;;;22.43;81.67
41366;BME280;27108;44.776;20.476;2022-09-09T02:02:49;99612.19;;;22.39;81.70
41366;BME280;27108;44.776;20.476;2022-09-09T02:05:31;99614.03;;;22.36;80.52
41366;BME280;27108;44.776;20.476;2022-09-09T02:08:06;99610.47;;;22.36;79.39
41366;BME280;27108;44.776;20.476;2022-09-09T02:10:48;99609.38;;;22.39;78.93
41366;BME280;27108;44.776;20.476;2022-09-09T02:13:35;99423.31;;;21.15;79.56
41366;BME280;27108;44.776;20.476;2022-09-09T02:16:12;99598.13;;;22.39;79.85
41366;BME280;27108;44.776;20.476;2022-09-09T02:18:50;99468.97;;;21.48;79.93
41366;BME280;27108;44.776;20.476;2022-09-09T02:21:26;99609.25;;;22.44;79.08
41366;BME280;27108;44.776;20.476;2022-09-09T02:24:03;99601.50;;;22.37;78.47
41366;BME280;27108;44.776;20.476;2022-09-09T02:26:39;99503.81;;;21.71;78.60
41366;BME280;27108;44.776;20.476;2022-09-09T02:29:14;99604.16;;;22.43;78.83
41366;BME280;27108;44.776;20.476;2022-09-09T02:31:47;99598.22;;;22.47;78.79
41366;BME280;27108;44.776;20.476;2022-09-09T02:36:53;99595.72;;;22.56;78.49
41366;BME280;27108;44.776;20.476;2022-09-09T02:39:24;99520.03;;;21.92;77.90
41366;BME280;27108;44.776;20.476;2022-09-09T02:41:54;99506.59;;;21.98;78.35
41366;BME280;27108;44.776;20.476;2022-09-09T02:44:31;99605.56;;;22.63;79.80
41366;BME280;27108;44.776;20.476;2022-09-09T02:47:20;99585.69;;;22.68;79.56
41366;BME280;27108;44.776;20.476;2022-09-09T02:49:59;99588.16;;;22.72;79.40
41366;BME280;27108;44.776;20.476;2022-09-09T02:52:39;99586.31;;;22.75;79.16
41366;BME280;27108;44.776;20.476;2022-09-09T02:55:18;99581.59;;;22.70;79.15
41366;BME280;27108;44.776;20.476;2022-09-09T02:57:55;99477.50;;;21.95;79.50
41366;BME280;27108;44.776;20.476;2022-09-09T03:00:30;99585.34;;;22.72;79.82
41366;BME280;27108;44.776;20.476;2022-09-09T03:03:03;99573.97;;;22.78;79.79
41366;BME280;27108;44.776;20.476;2022-09-09T03:05:37;99374.28;;;21.43;79.58
41366;BME280;27108;44.776;20.476;2022-09-09T03:08:07;99295.09;;;20.91;80.02
41366;BME280;27108;44.776;20.476;2022-09-09T03:10:36;99571.16;;;22.78;79.83
41366;BME280;27108;44.776;20.476;2022-09-09T03:13:06;99580.44;;;22.86;79.96
41366;BME280;27108;44.776;20.476;2022-09-09T03:15:39;99590.94;;;22.85;79.34
41366;BME280;27108;44.776;20.476;2022-09-09T03:18:14;99597.19;;;22.91;79.19
41366;BME280;27108;44.776;20.476;2022-09-09T03:20:50;99598.72;;;22.93;79.04
41366;BME280;27108;44.776;20.476;2022-09-09T03:23:21;99593.63;;;22.91;79.88
41366;BME280;27108;44.776;20.476;2022-09-09T03:25:51;99602.44;;;22.87;80.36
41366;BME280;27108;44.776;20.476;2022-09-09T03:28:30;99601.47;;;22.85;80.37
41366;BME280;27108;44.776;20.476;2022-09-09T03:31:04;99469.56;;;21.94;80.01
41366;BME280;27108;44.776;20.476;2022-09-09T03:33:39;99551.97;;;22.42;78.63
41366;BME280;27108;44.776;20.476;2022-09-09T03:36:12;99592.91;;;22.43;78.18
41366;BME280;27108;44.776;20.476;2022-09-09T03:38:40;99639.97;;;22.69;79.23
41366;BME280;27108;44.776;20.476;2022-09-09T03:41:10;99381.63;;;20.93;78.58
41366;BME280;27108;44.776;20.476;2022-09-09T03:43:40;99389.72;;;20.83;79.26
41366;BME280;27108;44.776;20.476;2022-09-09T03:46:13;99219.03;;;19.64;79.99
41366;BME280;27108;44.776;20.476;2022-09-09T03:48:41;99654.41;;;22.52;80.83
41366;BME280;27108;44.776;20.476;2022-09-09T03:51:11;99650.00;;;22.43;81.02
41366;BME280;27108;44.776;20.476;2022-09-09T03:53:41;99512.88;;;21.51;80.95
41366;BME280;27108;44.776;20.476;2022-09-09T03:56:12;99574.75;;;21.78;81.41
41366;BME280;27108;44.776;20.476;2022-09-09T03:58:41;99568.91;;;21.49;81.94
41366;BME280;27108;44.776;20.476;2022-09-09T04:01:14;99510.41;;;21.02;82.81
41366;BME280;27108;44.776;20.476;2022-09-09T04:03:48;99689.47;;;22.11;83.93
41366;BME280;27108;44.776;20.476;2022-09-09T04:06:18;99627.31;;;21.69;84.42
41366;BME280;27108;44.776;20.476;2022-09-09T04:08:50;99637.25;;;21.70;85.55
41366;BME280;27108;44.776;20.476;2022-09-09T04:11:22;99706.34;;;21.98;91.30
41366;BME280;27108;44.776;20.476;2022-09-09T04:13:55;99597.75;;;21.17;95.24
41366;BME280;27108;44.776;20.476;2022-09-09T04:16:25;99258.03;;;18.62;95.83
41366;BME280;27108;44.776;20.476;2022-09-09T04:18:59;99714.41;;;21.43;100.00
41366;BME280;27108;44.776;20.476;2022-09-09T04:21:28;99720.78;;;21.43;100.00
41366;BME280;27108;44.776;20.476;2022-09-09T04:24:00;99662.09;;;21.02;100.00
41366;BME280;27108;44.776;20.476;2022-09-09T04:26:29;99720.16;;;21.32;100.00
41366;BME280;27108;44.776;20.476;2022-09-09T04:29:00;99727.69;;;21.23;100.00
41366;BME280;27108;44.776;20.476;2022-09-09T04:31:31;99731.63;;;21.15;100.00
41366;BME280;27108;44.776;20.476;2022-09-09T04:34:09;99727.25;;;21.00;100.00
41366;BME280;27108;44.776;20.476;2022-09-09T04:36:38;99609.75;;;20.23;100.00
41366;BME280;27108;44.776;20.476;2022-09-09T04:39:08;99710.25;;;20.93;100.00
41366;BME280;27108;44.776;20.476;2022-09-09T04:41:38;99712.06;;;20.90;100.00
41366;BME280;27108;44.776;20.476;2022-09-09T04:44:09;99703.94;;;20.87;100.00
41366;BME280;27108;44.776;20.476;2022-09-09T04:46:39;99708.03;;;20.86;100.00
41366;BME280;27108;44.776;20.476;2022-09-09T04:49:09;99709.56;;;20.87;100.00
41366;BME280;27108;44.776;20.476;2022-09-09T04:51:42;99709.63;;;20.81;100.00
41366;BME280;27108;44.776;20.476;2022-09-09T04:54:10;99632.38;;;20.31;100.00
41366;BME280;27108;44.776;20.476;2022-09-09T04:56:43;99701.34;;;20.89;100.00
41366;BME280;27108;44.776;20.476;2022-09-09T04:59:12;99700.06;;;20.90;100.00
41366;BME280;27108;44.776;20.476;2022-09-09T05:01:48;99695.41;;;20.92;100.00
41366;BME280;27108;44.776;20.476;2022-09-09T05:04:18;99694.91;;;20.94;100.00
41366;BME280;27108;44.776;20.476;2022-09-09T05:06:47;99697.91;;;20.96;100.00
41366;BME280;27108;44.776;20.476;2022-09-09T05:09:15;99548.31;;;20.01;100.00
41366;BME280;27108;44.776;20.476;2022-09-09T05:11:46;99697.09;;;21.01;100.00
41366;BME280;27108;44.776;20.476;2022-09-09T05:14:35;99710.91;;;20.99;100.00
41366;BME280;27108;44.776;20.476;2022-09-09T05:17:08;99631.19;;;20.45;100.00
41366;BME280;27108;44.776;20.476;2022-09-09T05:19:38;99383.41;;;18.63;100.00
41366;BME280;27108;44.776;20.476;2022-09-09T05:22:08;99562.63;;;19.78;100.00
41366;BME280;27108;44.776;20.476;2022-09-09T05:24:44;99729.38;;;20.94;100.00
41366;BME280;27108;44.776;20.476;2022-09-09T05:27:13;99730.34;;;20.97;100.00
41366;BME280;27108;44.776;20.476;2022-09-09T05:29:42;99735.44;;;20.98;100.00
41366;BME280;27108;44.776;20.476;2022-09-09T05:32:16;99727.63;;;21.10;100.00
41366;BME280;27108;44.776;20.476;2022-09-09T05:34:48;99726.56;;;21.13;100.00
41366;BME280;27108;44.776;20.476;2022-09-09T05:37:17;99725.03;;;21.12;100.00
41366;BME280;27108;44.776;20.476;2022-09-09T05:39:46;99720.31;;;21.20;100.00
41366;BME280;27108;44.776;20.476;2022-09-09T05:42:16;99707.41;;;21.31;100.00
41366;BME280;27108;44.776;20.476;2022-09-09T05:44:45;99706.28;;;21.39;100.00
41366;BME280;27108;44.776;20.476;2022-09-09T05:47:16;99699.50;;;21.48;100.00
41366;BME280;27108;44.776;20.476;2022-09-09T05:49:44;99701.69;;;21.55;100.00
41366;BME280;27108;44.776;20.476;2022-09-09T05:52:13;99374.13;;;19.48;100.00
41366;BME280;27108;44.776;20.476;2022-09-09T05:54:43;99685.06;;;21.70;100.00
41366;BME280;27108;44.776;20.476;2022-09-09T05:57:12;99692.22;;;21.71;100.00
41366;BME280;27108;44.776;20.476;2022-09-09T05:59:41;99689.22;;;21.83;100.00
41366;BME280;27108;44.776;20.476;2022-09-09T06:02:11;99679.94;;;21.88;100.00
41366;BME280;27108;44.776;20.476;2022-09-09T06:04:44;99677.31;;;21.90;100.00
41366;BME280;27108;44.776;20.476;2022-09-09T06:07:13;99673.44;;;21.93;100.00
41366;BME280;27108;44.776;20.476;2022-09-09T06:09:42;99660.56;;;21.97;100.00
41366;BME280;27108;44.776;20.476;2022-09-09T06:12:12;99448.50;;;20.62;100.00
41366;BME280;27108;44.776;20.476;2022-09-09T06:14:41;99613.16;;;21.75;100.00
41366;BME280;27108;44.776;20.476;2022-09-09T06:17:12;99656.41;;;22.17;100.00
41366;BME280;27108;44.776;20.476;2022-09-09T06:19:42;99653.91;;;22.27;100.00
41366;BME280;27108;44.776;20.476;2022-09-09T06:22:11;99579.09;;;21.79;100.00
41366;BME280;27108;44.776;20.476;2022-09-09T06:24:41;99656.69;;;22.40;100.00
41366;BME280;27108;44.776;20.476;2022-09-09T06:27:12;99316.47;;;20.22;100.00
41366;BME280;27108;44.776;20.476;2022-09-09T06:29:41;99641.31;;;22.55;100.00
41366;BME280;27108;44.776;20.476;2022-09-09T06:32:10;99647.66;;;22.68;100.00
41366;BME280;27108;44.776;20.476;2022-09-09T06:34:39;99643.00;;;22.71;100.00
41366;BME280;27108;44.776;20.476;2022-09-09T06:37:13;99644.31;;;22.70;100.00
41366;BME280;27108;44.776;20.476;2022-09-09T06:39:47;99646.38;;;22.70;100.00
41366;BME280;27108;44.776;20.476;2022-09-09T06:42:17;99657.84;;;22.72;100.00
41366;BME280;27108;44.776;20.476;2022-09-09T06:44:49;99674.31;;;22.67;100.00
41366;BME280;27108;44.776;20.476;2022-09-09T06:47:31;99693.41;;;22.48;100.00
41366;BME280;27108;44.776;20.476;2022-09-09T06:50:03;99704.56;;;22.54;100.00
41366;BME280;27108;44.776;20.476;2022-09-09T06:52:36;99705.41;;;22.62;100.00
41366;BME280;27108;44.776;20.476;2022-09-09T06:55:10;99559.16;;;21.50;100.00
41366;BME280;27108;44.776;20.476;2022-09-09T06:57:40;99715.59;;;22.52;100.00
41366;BME280;27108;44.776;20.476;2022-09-09T07:00:14;99643.56;;;22.03;100.00
41366;BME280;27108;44.776;20.476;2022-09-09T07:02:44;99734.66;;;22.59;100.00
41366;BME280;27108;44.776;20.476;2022-09-09T07:05:13;99464.25;;;20.84;100.00
41366;BME280;27108;44.776;20.476;2022-09-09T07:07:46;99435.34;;;20.38;100.00
41366;BME280;27108;44.776;20.476;2022-09-09T07:10:19;99746.91;;;22.61;100.00
41366;BME280;27108;44.776;20.476;2022-09-09T07:12:50;99746.25;;;22.55;100.00
41366;BME280;27108;44.776;20.476;2022-09-09T07:15:22;99752.63;;;22.56;100.00
41366;BME280;27108;44.776;20.476;2022-09-09T07:17:53;99652.88;;;21.85;100.00
41366;BME280;27108;44.776;20.476;2022-09-09T07:20:22;99585.41;;;21.39;100.00
41366;BME280;27108;44.776;20.476;2022-09-09T07:22:56;99754.78;;;22.50;100.00
41366;BME280;27108;44.776;20.476;2022-09-09T07:25:26;99747.66;;;22.49;100.00
41366;BME280;27108;44.776;20.476;2022-09-09T07:27:58;99621.56;;;21.48;100.00
41366;BME280;27108;44.776;20.476;2022-09-09T07:30:27;99744.63;;;22.47;100.00
41366;BME280;27108;44.776;20.476;2022-09-09T07:32:57;99757.06;;;22.51;100.00
41366;BME280;27108;44.776;20.476;2022-09-09T07:35:27;99430.22;;;20.23;100.00
41366;BME280;27108;44.776;20.476;2022-09-09T07:38:00;99769.66;;;22.63;100.00
41366;BME280;27108;44.776;20.476;2022-09-09T07:40:31;99602.31;;;21.53;100.00
41366;BME280;27108;44.776;20.476;2022-09-09T07:43:00;99505.72;;;20.91;100.00
41366;BME280;27108;44.776;20.476;2022-09-09T07:45:29;99780.91;;;22.63;100.00
41366;BME280;27108;44.776;20.476;2022-09-09T07:48:01;99769.84;;;22.65;100.00
41366;BME280;27108;44.776;20.476;2022-09-09T07:50:31;99783.72;;;22.50;100.00
41366;BME280;27108;44.776;20.476;2022-09-09T07:53:01;99785.56;;;22.48;100.00
41366;BME280;27108;44.776;20.476;2022-09-09T07:55:33;99704.78;;;21.84;100.00
41366;BME280;27108;44.776;20.476;2022-09-09T07:58:01;99492.09;;;20.31;100.00
41366;BME280;27108;44.776;20.476;2022-09-09T08:00:37;99783.72;;;22.37;100.00
41366;BME280;27108;44.776;20.476;2022-09-09T08:03:07;99788.47;;;22.42;100.00
41366;BME280;27108;44.776;20.476;2022-09-09T08:05:35;99805.34;;;22.29;100.00
41366;BME280;27108;44.776;20.476;2022-09-09T08:08:08;99773.22;;;22.05;100.00
41366;BME280;27108;44.776;20.476;2022-09-09T08:10:38;99800.16;;;22.33;100.00
41366;BME280;27108;44.776;20.476;2022-09-09T08:13:09;99802.03;;;22.43;100.00
41366;BME280;27108;44.776;20.476;2022-09-09T08:15:44;99538.72;;;20.53;100.00
41366;BME280;27108;44.776;20.476;2022-09-09T08:18:13;99791.28;;;22.55;100.00
41366;BME280;27108;44.776;20.476;2022-09-09T08:20:43;99765.53;;;22.38;100.00
41366;BME280;27108;44.776;20.476;2022-09-09T08:23:13;99783.72;;;22.63;100.00
41366;BME280;27108;44.776;20.476;2022-09-09T08:25:43;99783.41;;;22.67;100.00
41366;BME280;27108;44.776;20.476;2022-09-09T08:28:13;99422.34;;;20.22;100.00
41366;BME280;27108;44.776;20.476;2022-09-09T08:30:42;99782.53;;;22.72;100.00
41366;BME280;27108;44.776;20.476;2022-09-09T08:33:10;99774.84;;;22.73;100.00
41366;BME280;27108;44.776;20.476;2022-09-09T08:35:39;99217.72;;;19.14;100.00
41366;BME280;27108;44.776;20.476;2022-09-09T08:38:09;99763.69;;;22.94;100.00
41366;BME280;27108;44.776;20.476;2022-09-09T08:40:45;99767.66;;;23.11;100.00
41366;BME280;27108;44.776;20.476;2022-09-09T08:43:19;99673.34;;;22.52;99.46
41366;BME280;27108;44.776;20.476;2022-09-09T08:45:57;99619.34;;;22.53;97.40
41366;BME280;27108;44.776;20.476;2022-09-09T08:48:56;99753.38;;;23.78;96.17
41366;BME280;27108;44.776;20.476;2022-09-09T08:51:29;99733.38;;;23.97;96.79
41366;BME280;27108;44.776;20.476;2022-09-09T08:54:02;99737.56;;;24.24;94.23
41366;BME280;27108;44.776;20.476;2022-09-09T08:56:33;99760.38;;;24.91;89.06
41366;BME280;27108;44.776;20.476;2022-09-09T08:59:03;99658.81;;;24.86;89.30
41366;BME280;27108;44.776;20.476;2022-09-09T09:01:50;99769.19;;;26.29;82.08
41366;BME280;27108;44.776;20.476;2022-09-09T09:04:37;99762.00;;;26.59;81.90
41366;BME280;27108;44.776;20.476;2022-09-09T09:07:15;99760.00;;;26.84;83.44
41366;BME280;27108;44.776;20.476;2022-09-09T09:09:57;99759.34;;;27.24;75.16
41366;BME280;27108;44.776;20.476;2022-09-09T09:12:38;99758.53;;;27.31;75.55
41366;BME280;27108;44.776;20.476;2022-09-09T09:15:16;99444.72;;;25.40;74.44
41366;BME280;27108;44.776;20.476;2022-09-09T09:17:48;99611.97;;;26.61;74.01
41366;BME280;27108;44.776;20.476;2022-09-09T09:20:26;99769.81;;;27.80;74.52
41366;BME280;27108;44.776;20.476;2022-09-09T09:23:02;99670.97;;;27.28;75.30
41366;BME280;27108;44.776;20.476;2022-09-09T09:25:35;99778.34;;;28.22;71.99
41366;BME280;27108;44.776;20.476;2022-09-09T09:28:15;99780.81;;;28.26;70.16
41366;BME280;27108;44.776;20.476;2022-09-09T09:30:51;99786.72;;;28.20;69.17
41366;BME280;27108;44.776;20.476;2022-09-09T09:33:24;99792.75;;;27.99;70.24
41366;BME280;27108;44.776;20.476;2022-09-09T09:35:56;99788.69;;;27.85;70.77
41366;BME280;27108;44.776;20.476;2022-09-09T09:38:28;99563.72;;;26.28;71.58
41366;BME280;27108;44.776;20.476;2022-09-09T09:41:28;99778.03;;;27.93;73.46
41366;BME280;27108;44.776;20.476;2022-09-09T09:43:59;99777.91;;;28.08;71.97
41366;BME280;27108;44.776;20.476;2022-09-09T09:46:32;99759.81;;;28.38;70.34
41366;BME280;27108;44.776;20.476;2022-09-09T09:49:09;99769.72;;;29.78;65.98
41366;BME280;27108;44.776;20.476;2022-09-09T09:51:42;99432.41;;;27.86;63.73
41366;BME280;27108;44.776;20.476;2022-09-09T09:54:18;99772.03;;;29.90;62.86
41366;BME280;27108;44.776;20.476;2022-09-09T09:56:55;99670.81;;;28.70;65.69
41366;BME280;27108;44.776;20.476;2022-09-09T09:59:38;99764.72;;;29.15;65.78
41366;BME280;27108;44.776;20.476;2022-09-09T10:02:17;99768.75;;;28.94;65.32
41366;BME280;27108;44.776;20.476;2022-09-09T10:05:01;99759.78;;;28.46;68.40
41366;BME280;27108;44.776;20.476;2022-09-09T10:07:31;99760.25;;;28.35;65.85
41366;BME280;27108;44.776;20.476;2022-09-09T10:10:00;99754.97;;;28.31;67.94
41366;BME280;27108;44.776;20.476;2022-09-09T10:12:39;99757.19;;;28.15;68.58
41366;BME280;27108;44.776;20.476;2022-09-09T10:15:26;99753.59;;;28.15;67.71
41366;BME280;27108;44.776;20.476;2022-09-09T10:18:04;99604.22;;;26.94;69.67
41366;BME280;27108;44.776;20.476;2022-09-09T10:20:44;99751.72;;;27.92;69.87
41366;BME280;27108;44.776;20.476;2022-09-09T10:23:26;99688.66;;;27.44;70.48
41366;BME280;27108;44.776;20.476;2022-09-09T10:26:09;99740.72;;;27.96;71.09
41366;BME280;27108;44.776;20.476;2022-09-09T10:29:12;99741.63;;;27.99;69.51
41366;BME280;27108;44.776;20.476;2022-09-09T10:31:49;99748.59;;;27.81;68.24
41366;BME280;27108;44.776;20.476;2022-09-09T10:34:39;99655.03;;;27.00;70.28
41366;BME280;27108;44.776;20.476;2022-09-09T10:37:22;99741.53;;;27.57;70.27
41366;BME280;27108;44.776;20.476;2022-09-09T10:40:00;99431.38;;;25.17;69.52
41366;BME280;27108;44.776;20.476;2022-09-09T10:42:32;99717.94;;;27.14;70.23
41366;BME280;27108;44.776;20.476;2022-09-09T10:45:13;99716.88;;;27.01;71.02
41366;BME280;27108;44.776;20.476;2022-09-09T10:48:02;99720.13;;;26.90;71.52
41366;BME280;27108;44.776;20.476;2022-09-09T10:50:45;99712.22;;;26.81;70.66
41366;BME280;27108;44.776;20.476;2022-09-09T10:53:35;99714.50;;;26.82;70.75
41366;BME280;27108;44.776;20.476;2022-09-09T10:56:08;99700.28;;;26.90;71.40
41366;BME280;27108;44.776;20.476;2022-09-09T10:58:42;99644.13;;;26.48;71.51
41366;BME280;27108;44.776;20.476;2022-09-09T11:01:20;99707.44;;;26.99;71.03
41366;BME280;27108;44.776;20.476;2022-09-09T11:03:57;99707.59;;;27.01;70.51
41366;BME280;27108;44.776;20.476;2022-09-09T11:06:33;99707.78;;;27.03;71.24
41366;BME280;27108;44.776;20.476;2022-09-09T11:09:05;99577.97;;;26.05;69.32
41366;BME280;27108;44.776;20.476;2022-09-09T11:11:38;99708.19;;;26.99;70.25
41366;BME280;27108;44.776;20.476;2022-09-09T11:14:13;99675.78;;;26.70;70.87
41366;BME280;27108;44.776;20.476;2022-09-09T11:16:53;99348.16;;;24.57;69.56
41366;BME280;27108;44.776;20.476;2022-09-09T11:19:30;99704.53;;;27.14;71.02
41366;BME280;27108;44.776;20.476;2022-09-09T11:22:04;99697.69;;;27.17;70.47
41366;BME280;27108;44.776;20.476;2022-09-09T11:24:37;99701.31;;;27.18;69.77
41366;BME280;27108;44.776;20.476;2022-09-09T11:27:10;99432.84;;;25.34;70.36
41366;BME280;27108;44.776;20.476;2022-09-09T11:30:02;99690.88;;;27.20;70.78
41366;BME280;27108;44.776;20.476;2022-09-09T11:36:13;99685.16;;;27.28;70.19
41366;BME280;27108;44.776;20.476;2022-09-09T11:38:50;99684.94;;;27.34;71.90
41366;BME280;27108;44.776;20.476;2022-09-09T11:41:20;99407.19;;;25.47;68.69
41366;BME280;27108;44.776;20.476;2022-09-09T11:43:51;99521.69;;;26.17;68.61
41366;BME280;27108;44.776;20.476;2022-09-09T11:46:37;99670.91;;;27.36;67.51
41366;BME280;27108;44.776;20.476;2022-09-09T11:49:21;99670.03;;;27.25;67.00
41366;BME280;27108;44.776;20.476;2022-09-09T11:52:11;99343.38;;;25.13;67.61
41366;BME280;27108;44.776;20.476;2022-09-09T11:54:46;99663.88;;;27.44;67.29
41366;BME280;27108;44.776;20.476;2022-09-09T11:57:25;99664.03;;;27.46;68.71
41366;BME280;27108;44.776;20.476;2022-09-09T11:59:58;99615.06;;;27.21;68.30
41366;BME280;27108;44.776;20.476;2022-09-09T12:02:48;99428.50;;;26.04;67.21
41366;BME280;27108;44.776;20.476;2022-09-09T12:05:19;99599.00;;;27.16;65.39
41366;BME280;27108;44.776;20.476;2022-09-09T12:07:52;99653.44;;;27.47;65.29
41366;BME280;27108;44.776;20.476;2022-09-09T12:10:27;99648.16;;;27.43;67.75
41366;BME280;27108;44.776;20.476;2022-09-09T12:13:08;99244.75;;;24.62;64.17
41366;BME280;27108;44.776;20.476;2022-09-09T12:15:47;99676.19;;;27.39;65.03
41366;BME280;27108;44.776;20.476;2022-09-09T12:18:22;99600.72;;;27.11;63.30
41366;BME280;27108;44.776;20.476;2022-09-09T12:21:18;99642.13;;;27.39;65.09
41366;BME280;27108;44.776;20.476;2022-09-09T12:24:02;99627.13;;;27.46;65.59
41366;BME280;27108;44.776;20.476;2022-09-09T12:26:37;99640.25;;;27.42;64.92
41366;BME280;27108;44.776;20.476;2022-09-09T12:29:23;99449.72;;;26.20;65.19
41366;BME280;27108;44.776;20.476;2022-09-09T12:31:58;99622.28;;;27.39;64.83
41366;BME280;27108;44.776;20.476;2022-09-09T12:34:33;99625.88;;;27.40;66.10
41366;BME280;27108;44.776;20.476;2022-09-09T12:37:11;99617.94;;;27.38;65.69
41366;BME280;27108;44.776;20.476;2022-09-09T12:39:53;99632.47;;;27.42;66.53
41366;BME280;27108;44.776;20.476;2022-09-09T12:42:25;99274.72;;;25.20;66.72
41366;BME280;27108;44.776;20.476;2022-09-09T12:44:55;99612.50;;;27.58;68.36
41366;BME280;27108;44.776;20.476;2022-09-09T12:47:30;99608.38;;;27.51;67.35
41366;BME280;27108;44.776;20.476;2022-09-09T12:50:03;99549.75;;;27.28;67.85
41366;BME280;27108;44.776;20.476;2022-09-09T12:52:35;99595.91;;;27.71;66.74
41366;BME280;27108;44.776;20.476;2022-09-09T12:55:18;99601.81;;;27.66;63.80
41366;BME280;27108;44.776;20.476;2022-09-09T12:57:49;99590.63;;;27.68;63.89
41366;BME280;27108;44.776;20.476;2022-09-09T13:00:23;99592.84;;;27.77;64.28
41366;BME280;27108;44.776;20.476;2022-09-09T13:02:55;99563.81;;;27.61;65.35
41366;BME280;27108;44.776;20.476;2022-09-09T13:05:27;99463.16;;;27.02;66.38
41366;BME280;27108;44.776;20.476;2022-09-09T13:08:01;99588.66;;;27.95;65.95
41366;BME280;27108;44.776;20.476;2022-09-09T13:10:35;99614.00;;;28.01;63.62
41366;BME280;27108;44.776;20.476;2022-09-09T13:13:21;99586.41;;;28.11;64.30
41366;BME280;27108;44.776;20.476;2022-09-09T13:15:53;99383.44;;;26.73;64.88
41366;BME280;27108;44.776;20.476;2022-09-09T13:18:25;99588.84;;;28.15;64.18
41366;BME280;27108;44.776;20.476;2022-09-09T13:20:56;99585.56;;;28.18;63.96
41366;BME280;27108;44.776;20.476;2022-09-09T13:23:30;99578.72;;;28.21;63.78
41366;BME280;27108;44.776;20.476;2022-09-09T13:26:03;99566.19;;;28.24;64.30
41366;BME280;27108;44.776;20.476;2022-09-09T13:28:34;99566.34;;;28.27;63.11
41366;BME280;27108;44.776;20.476;2022-09-09T13:31:04;99566.94;;;28.25;64.29
41366;BME280;27108;44.776;20.476;2022-09-09T13:33:35;99575.22;;;28.13;63.44